sensor_id;sensor_type;location;lat;lon;timestamp;P1;durP1;ratioP1;P2;durP2;ratioP2
35917;SDS011;22011;59.912;30.300;2022-12-17T00:01:47;37.63;;;16.40;;
35917;SDS011;22011;59.912;30.300;2022-12-17T00:04:32;33.33;;;16.55;;
35917;SDS011;22011;59.912;30.300;2022-12-17T00:07:17;32.95;;;17.83;;
35917;SDS011;22011;59.912;30.300;2022-12-17T00:10:02;49.92;;;19.55;;
35917;SDS011;22011;59.912;30.300;2022-12-17T00:12:49;41.80;;;18.92;;
35917;SDS011;22011;59.912;30.300;2022-12-17T00:15:34;34.58;;;17.55;;
35917;SDS011;22011;59.912;30.300;2022-12-17T00:18:19;39.03;;;17.27;;
35917;SDS011;22011;59.912;30.300;2022-12-17T00:21:04;42.13;;;17.83;;
35917;SDS011;22011;59.912;30.300;2022-12-17T00:23:49;38.13;;;18.20;;
35917;SDS011;22011;59.912;30.300;2022-12-17T00:26:35;33.60;;;16.20;;
35917;SDS011;22011;59.912;30.300;2022-12-17T00:29:21;39.13;;;16.90;;
35917;SDS011;22011;59.912;30.300;2022-12-17T00:32:07;43.03;;;17.58;;
35917;SDS011;22011;59.912;30.300;2022-12-17T00:34:52;35.97;;;17.02;;
35917;SDS011;22011;59.912;30.300;2022-12-17T00:37:37;36.10;;;16.60;;
35917;SDS011;22011;59.912;30.300;2022-12-17T00:40:22;38.38;;;17.30;;
35917;SDS011;22011;59.912;30.300;2022-12-17T00:43:22;38.90;;;16.93;;
35917;SDS011;22011;59.912;30.300;2022-12-17T00:46:08;35.20;;;15.35;;
35917;SDS011;22011;59.912;30.300;2022-12-17T00:48:53;42.05;;;17.65;;
35917;SDS011;22011;59.912;30.300;2022-12-17T00:51:38;38.05;;;17.52;;
35917;SDS011;22011;59.912;30.300;2022-12-17T00:54:23;44.60;;;17.65;;
35917;SDS011;22011;59.912;30.300;2022-12-17T00:57:08;37.88;;;18.13;;
35917;SDS011;22011;59.912;30.300;2022-12-17T00:59:53;43.80;;;18.38;;
35917;SDS011;22011;59.912;30.300;2022-12-17T01:02:39;43.92;;;18.77;;
35917;SDS011;22011;59.912;30.300;2022-12-17T01:05:25;44.75;;;17.90;;
35917;SDS011;22011;59.912;30.300;2022-12-17T01:08:11;40.50;;;17.60;;
35917;SDS011;22011;59.912;30.300;2022-12-17T01:10:58;47.00;;;18.38;;
35917;SDS011;22011;59.912;30.300;2022-12-17T01:13:44;39.72;;;17.50;;
35917;SDS011;22011;59.912;30.300;2022-12-17T01:16:28;41.17;;;17.30;;
35917;SDS011;22011;59.912;30.300;2022-12-17T01:19:15;39.95;;;17.80;;
35917;SDS011;22011;59.912;30.300;2022-12-17T01:22:00;50.72;;;20.30;;
35917;SDS011;22011;59.912;30.300;2022-12-17T01:24:45;47.10;;;18.80;;
35917;SDS011;22011;59.912;30.300;2022-12-17T01:27:30;43.42;;;17.55;;
35917;SDS011;22011;59.912;30.300;2022-12-17T01:30:15;44.95;;;18.77;;
35917;SDS011;22011;59.912;30.300;2022-12-17T01:33:00;49.55;;;18.52;;
35917;SDS011;22011;59.912;30.300;2022-12-17T01:35:47;38.40;;;17.85;;
35917;SDS011;22011;59.912;30.300;2022-12-17T01:38:32;40.33;;;15.95;;
35917;SDS011;22011;59.912;30.300;2022-12-17T01:41:26;41.28;;;16.73;;
35917;SDS011;22011;59.912;30.300;2022-12-17T01:47:29;45.80;;;19.42;;
35917;SDS011;22011;59.912;30.300;2022-12-17T01:50:17;42.97;;;18.83;;
35917;SDS011;22011;59.912;30.300;2022-12-17T01:53:05;46.08;;;17.33;;
35917;SDS011;22011;59.912;30.300;2022-12-17T01:55:51;44.58;;;17.75;;
35917;SDS011;22011;59.912;30.300;2022-12-17T01:58:37;44.25;;;18.73;;
35917;SDS011;22011;59.912;30.300;2022-12-17T02:01:29;40.40;;;17.95;;
35917;SDS011;22011;59.912;30.300;2022-12-17T02:04:14;39.45;;;16.60;;
35917;SDS011;22011;59.912;30.300;2022-12-17T02:07:06;41.17;;;16.73;;
35917;SDS011;22011;59.912;30.300;2022-12-17T02:10:04;42.35;;;17.45;;
35917;SDS011;22011;59.912;30.300;2022-12-17T02:12:58;41.40;;;17.75;;
35917;SDS011;22011;59.912;30.300;2022-12-17T02:15:51;40.38;;;17.40;;
35917;SDS011;22011;59.912;30.300;2022-12-17T02:18:41;34.58;;;16.75;;
35917;SDS011;22011;59.912;30.300;2022-12-17T02:21:33;33.53;;;15.75;;
35917;SDS011;22011;59.912;30.300;2022-12-17T02:24:23;35.45;;;16.98;;
35917;SDS011;22011;59.912;30.300;2022-12-17T02:27:16;38.17;;;17.27;;
35917;SDS011;22011;59.912;30.300;2022-12-17T02:30:03;39.70;;;18.10;;
35917;SDS011;22011;59.912;30.300;2022-12-17T02:32:52;39.58;;;18.23;;
35917;SDS011;22011;59.912;30.300;2022-12-17T02:35:40;42.80;;;17.55;;
35917;SDS011;22011;59.912;30.300;2022-12-17T02:38:28;36.00;;;17.35;;
35917;SDS011;22011;59.912;30.300;2022-12-17T02:41:16;33.10;;;15.70;;
35917;SDS011;22011;59.912;30.300;2022-12-17T02:44:09;36.40;;;15.88;;
35917;SDS011;22011;59.912;30.300;2022-12-17T02:46:58;35.03;;;15.57;;
35917;SDS011;22011;59.912;30.300;2022-12-17T02:49:45;28.05;;;12.95;;
35917;SDS011;22011;59.912;30.300;2022-12-17T02:52:35;24.70;;;12.48;;
35917;SDS011;22011;59.912;30.300;2022-12-17T02:55:23;25.38;;;11.60;;
35917;SDS011;22011;59.912;30.300;2022-12-17T02:58:08;21.92;;;12.25;;
35917;SDS011;22011;59.912;30.300;2022-12-17T03:00:54;22.85;;;10.45;;
35917;SDS011;22011;59.912;30.300;2022-12-17T03:03:40;20.25;;;10.75;;
35917;SDS011;22011;59.912;30.300;2022-12-17T03:06:26;19.02;;;9.77;;
35917;SDS011;22011;59.912;30.300;2022-12-17T03:09:11;22.48;;;10.88;;
35917;SDS011;22011;59.912;30.300;2022-12-17T03:11:56;23.42;;;10.10;;
35917;SDS011;22011;59.912;30.300;2022-12-17T03:14:41;20.85;;;11.27;;
35917;SDS011;22011;59.912;30.300;2022-12-17T03:17:27;23.20;;;10.63;;
35917;SDS011;22011;59.912;30.300;2022-12-17T03:20:12;22.70;;;10.18;;
35917;SDS011;22011;59.912;30.300;2022-12-17T03:23:03;21.67;;;11.07;;
35917;SDS011;22011;59.912;30.300;2022-12-17T03:25:49;20.90;;;11.13;;
35917;SDS011;22011;59.912;30.300;2022-12-17T03:28:34;22.40;;;10.43;;
35917;SDS011;22011;59.912;30.300;2022-12-17T03:31:21;24.95;;;11.90;;
35917;SDS011;22011;59.912;30.300;2022-12-17T03:34:08;25.23;;;12.30;;
35917;SDS011;22011;59.912;30.300;2022-12-17T03:36:53;25.13;;;10.90;;
35917;SDS011;22011;59.912;30.300;2022-12-17T03:39:38;22.65;;;11.82;;
35917;SDS011;22011;59.912;30.300;2022-12-17T03:42:23;30.20;;;11.77;;
35917;SDS011;22011;59.912;30.300;2022-12-17T03:45:08;25.42;;;12.75;;
35917;SDS011;22011;59.912;30.300;2022-12-17T03:48:02;25.70;;;11.82;;
35917;SDS011;22011;59.912;30.300;2022-12-17T03:50:51;27.35;;;12.52;;
35917;SDS011;22011;59.912;30.300;2022-12-17T03:53:37;31.10;;;12.18;;
35917;SDS011;22011;59.912;30.300;2022-12-17T03:56:22;27.85;;;13.32;;
35917;SDS011;22011;59.912;30.300;2022-12-17T03:59:08;35.38;;;14.55;;
35917;SDS011;22011;59.912;30.300;2022-12-17T04:01:53;25.10;;;12.00;;
35917;SDS011;22011;59.912;30.300;2022-12-17T04:04:38;23.90;;;12.00;;
35917;SDS011;22011;59.912;30.300;2022-12-17T04:07:30;22.98;;;11.10;;
35917;SDS011;22011;59.912;30.300;2022-12-17T04:10:15;29.50;;;12.18;;
35917;SDS011;22011;59.912;30.300;2022-12-17T04:13:00;27.70;;;11.93;;
35917;SDS011;22011;59.912;30.300;2022-12-17T04:15:45;22.25;;;9.55;;
35917;SDS011;22011;59.912;30.300;2022-12-17T04:18:30;17.40;;;8.70;;
35917;SDS011;22011;59.912;30.300;2022-12-17T04:21:15;18.52;;;9.60;;
35917;SDS011;22011;59.912;30.300;2022-12-17T04:24:01;20.10;;;8.85;;
35917;SDS011;22011;59.912;30.300;2022-12-17T04:26:46;23.83;;;9.25;;
35917;SDS011;22011;59.912;30.300;2022-12-17T04:29:31;14.77;;;8.02;;
35917;SDS011;22011;59.912;30.300;2022-12-17T04:32:27;17.05;;;8.18;;
35917;SDS011;22011;59.912;30.300;2022-12-17T04:35:12;14.88;;;7.75;;
35917;SDS011;22011;59.912;30.300;2022-12-17T04:37:57;13.50;;;7.53;;
35917;SDS011;22011;59.912;30.300;2022-12-17T04:40:43;13.43;;;7.90;;
35917;SDS011;22011;59.912;30.300;2022-12-17T04:43:28;16.55;;;8.90;;
35917;SDS011;22011;59.912;30.300;2022-12-17T04:46:13;18.33;;;7.75;;
35917;SDS011;22011;59.912;30.300;2022-12-17T04:48:58;15.43;;;7.82;;
35917;SDS011;22011;59.912;30.300;2022-12-17T04:51:43;16.70;;;8.15;;
35917;SDS011;22011;59.912;30.300;2022-12-17T04:54:28;13.80;;;7.25;;
35917;SDS011;22011;59.912;30.300;2022-12-17T04:57:14;15.82;;;7.95;;
35917;SDS011;22011;59.912;30.300;2022-12-17T04:59:59;15.23;;;8.70;;
35917;SDS011;22011;59.912;30.300;2022-12-17T05:02:44;16.65;;;8.70;;
35917;SDS011;22011;59.912;30.300;2022-12-17T05:05:29;17.45;;;9.02;;
35917;SDS011;22011;59.912;30.300;2022-12-17T05:08:14;18.40;;;9.63;;
35917;SDS011;22011;59.912;30.300;2022-12-17T05:11:00;20.50;;;10.43;;
35917;SDS011;22011;59.912;30.300;2022-12-17T05:13:47;16.92;;;8.77;;
35917;SDS011;22011;59.912;30.300;2022-12-17T05:16:32;19.55;;;9.07;;
35917;SDS011;22011;59.912;30.300;2022-12-17T05:19:17;22.20;;;9.82;;
35917;SDS011;22011;59.912;30.300;2022-12-17T05:22:02;30.38;;;11.25;;
35917;SDS011;22011;59.912;30.300;2022-12-17T05:24:47;20.25;;;10.05;;
35917;SDS011;22011;59.912;30.300;2022-12-17T05:27:31;27.25;;;10.70;;
35917;SDS011;22011;59.912;30.300;2022-12-17T05:30:18;20.13;;;9.30;;
35917;SDS011;22011;59.912;30.300;2022-12-17T05:33:03;19.85;;;8.93;;
35917;SDS011;22011;59.912;30.300;2022-12-17T05:35:48;16.23;;;9.10;;
35917;SDS011;22011;59.912;30.300;2022-12-17T05:38:37;18.20;;;9.95;;
35917;SDS011;22011;59.912;30.300;2022-12-17T05:41:22;14.82;;;7.50;;
35917;SDS011;22011;59.912;30.300;2022-12-17T05:44:07;18.75;;;8.93;;
35917;SDS011;22011;59.912;30.300;2022-12-17T05:46:53;15.27;;;8.07;;
35917;SDS011;22011;59.912;30.300;2022-12-17T05:49:38;15.55;;;8.65;;
35917;SDS011;22011;59.912;30.300;2022-12-17T05:52:23;14.73;;;7.53;;
35917;SDS011;22011;59.912;30.300;2022-12-17T05:55:08;17.92;;;8.57;;
35917;SDS011;22011;59.912;30.300;2022-12-17T05:57:59;17.45;;;8.70;;
35917;SDS011;22011;59.912;30.300;2022-12-17T06:00:45;19.33;;;8.32;;
35917;SDS011;22011;59.912;30.300;2022-12-17T06:03:34;18.00;;;8.48;;
35917;SDS011;22011;59.912;30.300;2022-12-17T06:06:24;16.38;;;8.35;;
35917;SDS011;22011;59.912;30.300;2022-12-17T06:09:09;15.25;;;9.00;;
35917;SDS011;22011;59.912;30.300;2022-12-17T06:11:54;18.55;;;9.18;;
35917;SDS011;22011;59.912;30.300;2022-12-17T06:14:39;18.88;;;9.63;;
35917;SDS011;22011;59.912;30.300;2022-12-17T06:17:26;17.98;;;8.93;;
35917;SDS011;22011;59.912;30.300;2022-12-17T06:20:15;18.60;;;9.43;;
35917;SDS011;22011;59.912;30.300;2022-12-17T06:23:00;19.15;;;9.45;;
35917;SDS011;22011;59.912;30.300;2022-12-17T06:25:46;17.65;;;10.30;;
35917;SDS011;22011;59.912;30.300;2022-12-17T06:28:31;17.00;;;9.32;;
35917;SDS011;22011;59.912;30.300;2022-12-17T06:31:16;18.13;;;10.25;;
35917;SDS011;22011;59.912;30.300;2022-12-17T06:34:01;20.42;;;10.10;;
35917;SDS011;22011;59.912;30.300;2022-12-17T06:36:47;18.83;;;10.98;;
35917;SDS011;22011;59.912;30.300;2022-12-17T06:39:32;20.27;;;10.38;;
35917;SDS011;22011;59.912;30.300;2022-12-17T06:42:17;21.15;;;10.05;;
35917;SDS011;22011;59.912;30.300;2022-12-17T06:45:02;17.77;;;10.05;;
35917;SDS011;22011;59.912;30.300;2022-12-17T06:47:48;19.80;;;10.15;;
35917;SDS011;22011;59.912;30.300;2022-12-17T06:50:33;20.33;;;9.77;;
35917;SDS011;22011;59.912;30.300;2022-12-17T06:53:19;21.52;;;9.10;;
35917;SDS011;22011;59.912;30.300;2022-12-17T06:56:04;16.65;;;8.63;;
35917;SDS011;22011;59.912;30.300;2022-12-17T06:58:49;15.88;;;8.75;;
35917;SDS011;22011;59.912;30.300;2022-12-17T07:01:34;18.75;;;9.45;;
35917;SDS011;22011;59.912;30.300;2022-12-17T07:04:19;18.05;;;9.02;;
35917;SDS011;22011;59.912;30.300;2022-12-17T07:07:04;17.33;;;8.73;;
35917;SDS011;22011;59.912;30.300;2022-12-17T07:09:50;17.60;;;8.80;;
35917;SDS011;22011;59.912;30.300;2022-12-17T07:12:34;16.55;;;8.80;;
35917;SDS011;22011;59.912;30.300;2022-12-17T07:15:19;21.88;;;9.63;;
35917;SDS011;22011;59.912;30.300;2022-12-17T07:18:04;19.92;;;9.65;;
35917;SDS011;22011;59.912;30.300;2022-12-17T07:20:51;24.17;;;11.02;;
35917;SDS011;22011;59.912;30.300;2022-12-17T07:23:39;21.98;;;10.15;;
35917;SDS011;22011;59.912;30.300;2022-12-17T07:26:26;21.65;;;10.57;;
35917;SDS011;22011;59.912;30.300;2022-12-17T07:29:11;25.52;;;11.68;;
35917;SDS011;22011;59.912;30.300;2022-12-17T07:31:56;27.25;;;12.55;;
35917;SDS011;22011;59.912;30.300;2022-12-17T07:34:52;22.90;;;11.90;;
35917;SDS011;22011;59.912;30.300;2022-12-17T07:37:37;22.23;;;11.10;;
35917;SDS011;22011;59.912;30.300;2022-12-17T07:40:22;19.00;;;10.88;;
35917;SDS011;22011;59.912;30.300;2022-12-17T07:43:11;21.13;;;9.90;;
35917;SDS011;22011;59.912;30.300;2022-12-17T07:45:59;21.15;;;11.55;;
35917;SDS011;22011;59.912;30.300;2022-12-17T07:48:47;23.92;;;11.73;;
35917;SDS011;22011;59.912;30.300;2022-12-17T07:51:31;25.13;;;11.65;;
35917;SDS011;22011;59.912;30.300;2022-12-17T07:54:16;24.38;;;13.35;;
35917;SDS011;22011;59.912;30.300;2022-12-17T07:57:01;29.48;;;13.48;;
35917;SDS011;22011;59.912;30.300;2022-12-17T07:59:47;35.67;;;12.77;;
35917;SDS011;22011;59.912;30.300;2022-12-17T08:02:32;19.65;;;11.25;;
35917;SDS011;22011;59.912;30.300;2022-12-17T08:05:17;22.77;;;11.65;;
35917;SDS011;22011;59.912;30.300;2022-12-17T08:08:06;24.05;;;12.30;;
35917;SDS011;22011;59.912;30.300;2022-12-17T08:10:51;28.25;;;11.40;;
35917;SDS011;22011;59.912;30.300;2022-12-17T08:13:36;27.70;;;13.50;;
35917;SDS011;22011;59.912;30.300;2022-12-17T08:16:22;25.20;;;11.98;;
35917;SDS011;22011;59.912;30.300;2022-12-17T08:19:07;25.50;;;11.52;;
35917;SDS011;22011;59.912;30.300;2022-12-17T08:21:52;32.38;;;13.40;;
35917;SDS011;22011;59.912;30.300;2022-12-17T08:24:37;20.85;;;10.30;;
35917;SDS011;22011;59.912;30.300;2022-12-17T08:27:22;24.48;;;12.30;;
35917;SDS011;22011;59.912;30.300;2022-12-17T08:30:07;26.52;;;12.20;;
35917;SDS011;22011;59.912;30.300;2022-12-17T08:32:54;25.02;;;12.52;;
35917;SDS011;22011;59.912;30.300;2022-12-17T08:35:39;21.20;;;10.23;;
35917;SDS011;22011;59.912;30.300;2022-12-17T08:38:24;23.83;;;12.07;;
35917;SDS011;22011;59.912;30.300;2022-12-17T08:41:09;26.48;;;11.57;;
35917;SDS011;22011;59.912;30.300;2022-12-17T08:43:54;25.20;;;12.07;;
35917;SDS011;22011;59.912;30.300;2022-12-17T08:46:39;28.05;;;12.02;;
35917;SDS011;22011;59.912;30.300;2022-12-17T08:49:25;25.85;;;11.75;;
35917;SDS011;22011;59.912;30.300;2022-12-17T08:52:11;27.23;;;11.70;;
35917;SDS011;22011;59.912;30.300;2022-12-17T08:54:55;24.52;;;11.73;;
35917;SDS011;22011;59.912;30.300;2022-12-17T08:57:52;29.48;;;13.02;;
35917;SDS011;22011;59.912;30.300;2022-12-17T09:00:38;27.25;;;12.80;;
35917;SDS011;22011;59.912;30.300;2022-12-17T09:03:23;24.38;;;12.57;;
35917;SDS011;22011;59.912;30.300;2022-12-17T09:06:09;25.42;;;13.63;;
35917;SDS011;22011;59.912;30.300;2022-12-17T09:08:54;32.88;;;12.93;;
35917;SDS011;22011;59.912;30.300;2022-12-17T09:11:39;25.73;;;10.93;;
35917;SDS011;22011;59.912;30.300;2022-12-17T09:14:25;18.63;;;9.80;;
35917;SDS011;22011;59.912;30.300;2022-12-17T09:17:10;25.45;;;10.95;;
35917;SDS011;22011;59.912;30.300;2022-12-17T09:19:55;21.40;;;10.55;;
35917;SDS011;22011;59.912;30.300;2022-12-17T09:22:41;28.58;;;12.93;;
35917;SDS011;22011;59.912;30.300;2022-12-17T09:25:26;26.05;;;12.65;;
35917;SDS011;22011;59.912;30.300;2022-12-17T09:28:11;28.52;;;14.43;;
35917;SDS011;22011;59.912;30.300;2022-12-17T09:30:57;34.80;;;14.27;;
35917;SDS011;22011;59.912;30.300;2022-12-17T09:33:42;34.50;;;15.98;;
35917;SDS011;22011;59.912;30.300;2022-12-17T09:36:24;34.75;;;16.35;;
35917;SDS011;22011;59.912;30.300;2022-12-17T09:39:10;38.75;;;15.60;;
35917;SDS011;22011;59.912;30.300;2022-12-17T09:42:07;28.55;;;14.00;;
35917;SDS011;22011;59.912;30.300;2022-12-17T09:44:59;35.03;;;17.30;;
35917;SDS011;22011;59.912;30.300;2022-12-17T09:47:50;31.58;;;15.68;;
35917;SDS011;22011;59.912;30.300;2022-12-17T09:50:41;31.60;;;16.02;;
35917;SDS011;22011;59.912;30.300;2022-12-17T09:53:30;34.92;;;16.58;;
35917;SDS011;22011;59.912;30.300;2022-12-17T09:56:22;36.90;;;17.27;;
35917;SDS011;22011;59.912;30.300;2022-12-17T09:59:11;37.28;;;16.77;;
35917;SDS011;22011;59.912;30.300;2022-12-17T10:02:07;34.47;;;16.45;;
35917;SDS011;22011;59.912;30.300;2022-12-17T10:04:56;30.60;;;15.23;;
35917;SDS011;22011;59.912;30.300;2022-12-17T10:07:45;34.85;;;15.80;;
35917;SDS011;22011;59.912;30.300;2022-12-17T10:10:42;29.23;;;14.70;;
35917;SDS011;22011;59.912;30.300;2022-12-17T10:13:31;36.10;;;15.63;;
35917;SDS011;22011;59.912;30.300;2022-12-17T10:16:17;31.65;;;14.23;;
35917;SDS011;22011;59.912;30.300;2022-12-17T10:19:04;34.88;;;14.57;;
35917;SDS011;22011;59.912;30.300;2022-12-17T10:22:04;36.25;;;15.57;;
35917;SDS011;22011;59.912;30.300;2022-12-17T10:24:50;26.92;;;14.85;;
35917;SDS011;22011;59.912;30.300;2022-12-17T10:27:35;31.40;;;15.82;;
35917;SDS011;22011;59.912;30.300;2022-12-17T10:30:24;28.27;;;13.88;;
35917;SDS011;22011;59.912;30.300;2022-12-17T10:33:24;32.78;;;15.85;;
35917;SDS011;22011;59.912;30.300;2022-12-17T10:36:18;29.67;;;13.60;;
35917;SDS011;22011;59.912;30.300;2022-12-17T10:39:05;31.10;;;14.23;;
35917;SDS011;22011;59.912;30.300;2022-12-17T10:44:40;23.38;;;12.63;;
35917;SDS011;22011;59.912;30.300;2022-12-17T10:47:26;23.83;;;12.65;;
35917;SDS011;22011;59.912;30.300;2022-12-17T10:50:12;28.08;;;12.35;;
35917;SDS011;22011;59.912;30.300;2022-12-17T10:52:59;27.48;;;13.95;;
35917;SDS011;22011;59.912;30.300;2022-12-17T10:55:46;34.25;;;12.77;;
35917;SDS011;22011;59.912;30.300;2022-12-17T10:58:32;28.10;;;13.05;;
35917;SDS011;22011;59.912;30.300;2022-12-17T11:01:19;26.17;;;13.18;;
35917;SDS011;22011;59.912;30.300;2022-12-17T11:04:23;27.98;;;13.18;;
35917;SDS011;22011;59.912;30.300;2022-12-17T11:07:11;33.17;;;13.77;;
35917;SDS011;22011;59.912;30.300;2022-12-17T11:10:01;26.67;;;14.35;;
35917;SDS011;22011;59.912;30.300;2022-12-17T11:12:48;23.55;;;13.73;;
35917;SDS011;22011;59.912;30.300;2022-12-17T11:15:36;28.27;;;12.95;;
35917;SDS011;22011;59.912;30.300;2022-12-17T11:18:28;26.40;;;14.07;;
35917;SDS011;22011;59.912;30.300;2022-12-17T11:21:18;28.00;;;13.13;;
35917;SDS011;22011;59.912;30.300;2022-12-17T11:24:10;27.23;;;13.02;;
35917;SDS011;22011;59.912;30.300;2022-12-17T11:27:00;28.73;;;12.73;;
35917;SDS011;22011;59.912;30.300;2022-12-17T11:29:48;18.45;;;10.77;;
35917;SDS011;22011;59.912;30.300;2022-12-17T11:35:47;26.70;;;11.15;;
35917;SDS011;22011;59.912;30.300;2022-12-17T11:38:40;15.40;;;8.93;;
35917;SDS011;22011;59.912;30.300;2022-12-17T11:41:33;20.38;;;10.73;;
35917;SDS011;22011;59.912;30.300;2022-12-17T11:44:42;19.90;;;9.82;;
35917;SDS011;22011;59.912;30.300;2022-12-17T11:47:36;23.48;;;10.43;;
35917;SDS011;22011;59.912;30.300;2022-12-17T11:50:27;21.35;;;9.80;;
35917;SDS011;22011;59.912;30.300;2022-12-17T11:53:26;21.90;;;11.32;;
35917;SDS011;22011;59.912;30.300;2022-12-17T11:56:28;26.50;;;11.15;;
35917;SDS011;22011;59.912;30.300;2022-12-17T11:59:24;18.88;;;8.77;;
35917;SDS011;22011;59.912;30.300;2022-12-17T12:02:15;19.92;;;9.73;;
35917;SDS011;22011;59.912;30.300;2022-12-17T12:05:20;14.70;;;8.15;;
35917;SDS011;22011;59.912;30.300;2022-12-17T12:08:28;15.13;;;8.63;;
35917;SDS011;22011;59.912;30.300;2022-12-17T12:11:17;17.70;;;9.07;;
35917;SDS011;22011;59.912;30.300;2022-12-17T12:14:14;14.70;;;7.82;;
35917;SDS011;22011;59.912;30.300;2022-12-17T12:17:18;16.20;;;7.65;;
35917;SDS011;22011;59.912;30.300;2022-12-17T12:20:19;14.23;;;7.63;;
35917;SDS011;22011;59.912;30.300;2022-12-17T12:23:19;20.90;;;10.40;;
35917;SDS011;22011;59.912;30.300;2022-12-17T12:26:14;14.88;;;7.45;;
35917;SDS011;22011;59.912;30.300;2022-12-17T12:29:03;20.00;;;9.40;;
35917;SDS011;22011;59.912;30.300;2022-12-17T12:32:02;17.17;;;8.73;;
35917;SDS011;22011;59.912;30.300;2022-12-17T12:34:55;18.63;;;9.00;;
35917;SDS011;22011;59.912;30.300;2022-12-17T12:37:42;14.80;;;9.68;;
35917;SDS011;22011;59.912;30.300;2022-12-17T12:40:30;17.45;;;8.98;;
35917;SDS011;22011;59.912;30.300;2022-12-17T12:43:20;19.05;;;9.65;;
35917;SDS011;22011;59.912;30.300;2022-12-17T12:46:11;17.45;;;8.90;;
35917;SDS011;22011;59.912;30.300;2022-12-17T12:49:04;15.35;;;7.75;;
35917;SDS011;22011;59.912;30.300;2022-12-17T12:51:57;18.00;;;8.15;;
35917;SDS011;22011;59.912;30.300;2022-12-17T12:54:50;14.75;;;8.07;;
35917;SDS011;22011;59.912;30.300;2022-12-17T12:57:37;16.45;;;8.18;;
35917;SDS011;22011;59.912;30.300;2022-12-17T13:00:28;15.25;;;7.78;;
35917;SDS011;22011;59.912;30.300;2022-12-17T13:03:23;16.17;;;8.02;;
35917;SDS011;22011;59.912;30.300;2022-12-17T13:06:11;13.07;;;7.65;;
35917;SDS011;22011;59.912;30.300;2022-12-17T13:08:40;16.67;;;8.70;;
35917;SDS011;22011;59.912;30.300;2022-12-17T13:11:10;15.18;;;7.63;;
35917;SDS011;22011;59.912;30.300;2022-12-17T13:13:52;12.25;;;7.35;;
35917;SDS011;22011;59.912;30.300;2022-12-17T13:16:29;15.85;;;7.93;;
35917;SDS011;22011;59.912;30.300;2022-12-17T13:19:01;16.83;;;8.68;;
35917;SDS011;22011;59.912;30.300;2022-12-17T13:21:44;16.90;;;8.68;;
35917;SDS011;22011;59.912;30.300;2022-12-17T13:24:21;17.33;;;8.30;;
35917;SDS011;22011;59.912;30.300;2022-12-17T13:26:50;14.98;;;7.38;;
35917;SDS011;22011;59.912;30.300;2022-12-17T13:29:20;13.05;;;6.90;;
35917;SDS011;22011;59.912;30.300;2022-12-17T13:31:52;16.92;;;8.35;;
35917;SDS011;22011;59.912;30.300;2022-12-17T13:34:29;24.02;;;11.10;;
35917;SDS011;22011;59.912;30.300;2022-12-17T13:37:10;20.65;;;9.55;;
35917;SDS011;22011;59.912;30.300;2022-12-17T13:39:47;21.27;;;10.65;;
35917;SDS011;22011;59.912;30.300;2022-12-17T13:42:24;18.42;;;9.55;;
35917;SDS011;22011;59.912;30.300;2022-12-17T13:44:54;21.77;;;10.52;;
35917;SDS011;22011;59.912;30.300;2022-12-17T13:47:24;26.27;;;10.10;;
35917;SDS011;22011;59.912;30.300;2022-12-17T13:49:54;24.23;;;9.77;;
35917;SDS011;22011;59.912;30.300;2022-12-17T13:52:25;16.60;;;8.80;;
35917;SDS011;22011;59.912;30.300;2022-12-17T13:55:04;16.73;;;8.30;;
35917;SDS011;22011;59.912;30.300;2022-12-17T13:57:34;17.30;;;9.40;;
35917;SDS011;22011;59.912;30.300;2022-12-17T14:00:04;23.98;;;9.70;;
35917;SDS011;22011;59.912;30.300;2022-12-17T14:02:38;26.45;;;10.65;;
35917;SDS011;22011;59.912;30.300;2022-12-17T14:05:15;18.88;;;9.50;;
35917;SDS011;22011;59.912;30.300;2022-12-17T14:07:50;19.63;;;9.80;;
35917;SDS011;22011;59.912;30.300;2022-12-17T14:10:19;16.92;;;9.07;;
35917;SDS011;22011;59.912;30.300;2022-12-17T14:12:46;16.85;;;8.75;;
35917;SDS011;22011;59.912;30.300;2022-12-17T14:15:18;16.83;;;9.63;;
35917;SDS011;22011;59.912;30.300;2022-12-17T14:17:50;17.25;;;8.93;;
35917;SDS011;22011;59.912;30.300;2022-12-17T14:20:20;19.17;;;10.07;;
35917;SDS011;22011;59.912;30.300;2022-12-17T14:22:52;16.55;;;9.80;;
35917;SDS011;22011;59.912;30.300;2022-12-17T14:25:21;22.90;;;11.45;;
35917;SDS011;22011;59.912;30.300;2022-12-17T14:27:51;16.73;;;10.23;;
35917;SDS011;22011;59.912;30.300;2022-12-17T14:30:21;17.50;;;9.43;;
35917;SDS011;22011;59.912;30.300;2022-12-17T14:32:50;21.65;;;10.75;;
35917;SDS011;22011;59.912;30.300;2022-12-17T14:35:21;13.63;;;7.90;;
35917;SDS011;22011;59.912;30.300;2022-12-17T14:37:52;16.38;;;8.52;;
35917;SDS011;22011;59.912;30.300;2022-12-17T14:40:20;16.25;;;8.13;;
35917;SDS011;22011;59.912;30.300;2022-12-17T14:42:49;13.48;;;7.45;;
35917;SDS011;22011;59.912;30.300;2022-12-17T14:45:21;13.85;;;7.95;;
35917;SDS011;22011;59.912;30.300;2022-12-17T14:47:51;15.43;;;8.60;;
35917;SDS011;22011;59.912;30.300;2022-12-17T14:50:25;19.73;;;9.77;;
35917;SDS011;22011;59.912;30.300;2022-12-17T14:52:59;20.85;;;9.45;;
35917;SDS011;22011;59.912;30.300;2022-12-17T14:55:30;24.90;;;9.70;;
35917;SDS011;22011;59.912;30.300;2022-12-17T14:58:07;20.92;;;10.43;;
35917;SDS011;22011;59.912;30.300;2022-12-17T15:00:41;17.73;;;8.85;;
35917;SDS011;22011;59.912;30.300;2022-12-17T15:03:11;16.60;;;9.23;;
35917;SDS011;22011;59.912;30.300;2022-12-17T15:05:43;15.93;;;8.57;;
35917;SDS011;22011;59.912;30.300;2022-12-17T15:08:15;16.85;;;8.43;;
35917;SDS011;22011;59.912;30.300;2022-12-17T15:10:43;16.52;;;8.10;;
35917;SDS011;22011;59.912;30.300;2022-12-17T15:13:10;14.30;;;6.72;;
35917;SDS011;22011;59.912;30.300;2022-12-17T15:15:38;16.13;;;8.10;;
35917;SDS011;22011;59.912;30.300;2022-12-17T15:18:06;14.32;;;7.80;;
35917;SDS011;22011;59.912;30.300;2022-12-17T15:20:33;18.30;;;8.27;;
35917;SDS011;22011;59.912;30.300;2022-12-17T15:23:02;16.15;;;7.90;;
35917;SDS011;22011;59.912;30.300;2022-12-17T15:25:31;14.70;;;7.30;;
35917;SDS011;22011;59.912;30.300;2022-12-17T15:27:58;14.30;;;8.50;;
35917;SDS011;22011;59.912;30.300;2022-12-17T15:30:26;11.73;;;7.03;;
35917;SDS011;22011;59.912;30.300;2022-12-17T15:32:54;16.00;;;7.07;;
35917;SDS011;22011;59.912;30.300;2022-12-17T15:35:21;14.57;;;7.00;;
35917;SDS011;22011;59.912;30.300;2022-12-17T15:37:49;13.20;;;7.35;;
35917;SDS011;22011;59.912;30.300;2022-12-17T15:40:16;16.52;;;8.80;;
35917;SDS011;22011;59.912;30.300;2022-12-17T15:42:45;13.68;;;7.45;;
35917;SDS011;22011;59.912;30.300;2022-12-17T15:45:30;18.13;;;7.72;;
35917;SDS011;22011;59.912;30.300;2022-12-17T15:47:58;14.35;;;7.32;;
35917;SDS011;22011;59.912;30.300;2022-12-17T15:50:25;15.30;;;6.72;;
35917;SDS011;22011;59.912;30.300;2022-12-17T15:52:53;13.55;;;6.88;;
35917;SDS011;22011;59.912;30.300;2022-12-17T15:55:20;12.70;;;6.68;;
35917;SDS011;22011;59.912;30.300;2022-12-17T15:57:49;9.73;;;5.82;;
35917;SDS011;22011;59.912;30.300;2022-12-17T16:00:17;16.05;;;7.72;;
35917;SDS011;22011;59.912;30.300;2022-12-17T16:02:45;13.65;;;7.35;;